ADDS METAR Data INFO
IDs: Format: Raw Decoded Include TAF

Data at: 0429 UTC 24 Apr 2018

KDUX 240415Z AUTO 12009KT 10SM CLR 13/06 A3006 RMK AO2 T01300058
KDUX 240355Z AUTO 13010KT 10SM CLR 13/06 A3005 RMK AO2 T01310060
KDUX 240335Z AUTO 12008KT 10SM CLR 14/06 A3005 RMK AO2 T01350061
KDUX 240315Z AUTO 13008KT 10SM CLR 14/06 A3005 RMK AO2 T01370061
KDUX 240255Z AUTO 12008KT 10SM CLR 15/06 A3004 RMK AO2 T01450061
KDUX 240235Z AUTO 12007KT 10SM CLR 16/06 A3003 RMK AO2 T01550060
KDUX 240215Z AUTO 11008KT 10SM CLR 16/06 A3002 RMK AO2 T01590061
KDUX 240155Z AUTO 11007KT 10SM CLR 17/06 A3002 RMK AO2 T01670061
KDUX 240135Z AUTO 11008KT 10SM CLR 17/06 A3002 RMK AO2 T01710061
KDUX 240115Z AUTO 11007KT 10SM CLR 18/06 A3002 RMK AO2 T01840060
KDUX 240055Z AUTO 11007KT 10SM CLR 19/06 A3002 RMK AO2 T01940060
KDUX 240035Z AUTO 12007KT 10SM CLR 21/06 A3002 RMK AO2 T02060061
KDUX 240015Z AUTO 13006KT 10SM CLR 20/06 A3002 RMK AO2 T02020056
KDUX 232355Z AUTO 13006KT 10SM CLR 21/05 A3002 RMK AO2 T02110050 10226 20161
KDUX 232335Z AUTO 14010G16KT 10SM CLR 22/05 A3002 RMK AO2 T02210049
KDUX 232315Z AUTO 15009KT 10SM CLR 22/05 A3003 RMK AO2 T02240052
KDUX 232255Z AUTO 16010G15KT 10SM CLR 22/05 A3003 RMK AO2 T02210051
KDUX 232235Z AUTO 14009KT 7SM CLR 22/05 A3003 RMK AO2 T02170052
KDUX 232215Z AUTO 14012KT 7SM CLR 22/06 A3004 RMK AO2 T02160055
KDUX 232155Z AUTO 12009G15KT 7SM CLR 21/06 A3005 RMK AO2 T02130055
KDUX 232135Z AUTO 17011G16KT 10SM CLR 21/05 A3006 RMK AO2 T02120054
KDUX 232115Z AUTO 17010G15KT 10SM CLR 21/05 A3007 RMK AO2 T02060052
KDUX 232055Z AUTO 16010KT 10SM CLR 20/05 A3009 RMK AO2 T02030054
KDUX 232035Z AUTO 17008G14KT 10SM CLR 19/05 A3010 RMK AO2 T01940050
KDUX 232015Z AUTO 17008G16KT 140V200 10SM CLR 19/05 A3011 RMK AO2 T01940051
KDUX 231955Z AUTO 15011G16KT 110V170 10SM CLR 19/05 A3011 RMK AO2 T01890051
KDUX 231935Z AUTO 17010G17KT 10SM CLR 18/05 A3011 RMK AO2 T01800046
KDUX 231915Z AUTO 18007KT 10SM CLR 17/05 A3013 RMK AO2 T01730045
KDUX 231855Z AUTO 16008G15KT 10SM CLR 17/04 A3014 RMK AO2 T01720044
KDUX 231835Z AUTO 16007KT 10SM CLR 17/04 A3015 RMK AO2 T01680042
KDUX 231815Z AUTO 17011G14KT 10SM CLR 17/04 A3015 RMK AO2 T01650040
KDUX 231755Z AUTO 12009G14KT 10SM CLR 16/05 A3016 RMK AO2 T01620047 10163 20017
KDUX 231735Z AUTO 15007KT 10SM CLR 15/04 A3017 RMK AO2 T01520042
KDUX 231715Z AUTO 16006KT 10SM CLR 15/04 A3018 RMK AO2 T01480043
KDUX 231655Z AUTO 12008KT 10SM CLR 14/05 A3019 RMK AO2 T01430045
KDUX 231635Z AUTO 13008KT 10SM CLR 14/04 A3020 RMK AO2 T01370044
KDUX 231615Z AUTO 11006KT 10SM CLR 13/04 A3020 RMK AO2 T01280040
KDUX 231555Z AUTO 15007KT 10SM CLR 12/04 A3020 RMK AO2 T01240040
KDUX 231535Z AUTO 14006KT 10SM CLR 12/04 A3020 RMK AO2 T01170039
KDUX 231515Z AUTO 14006KT 10SM CLR 11/04 A3020 RMK AO2 T01100038
KDUX 231455Z AUTO 15007KT 10SM CLR 11/04 A3020 RMK AO2 T01060035
KDUX 231435Z AUTO 12006KT 10SM CLR 10/04 A3020 RMK AO2 T00970042
KDUX 231415Z AUTO 14004KT 10SM CLR 09/04 A3020 RMK AO2 T00910041
KDUX 231355Z AUTO 00000KT 10SM CLR 08/04 A3020 RMK AO2 T00780042
KDUX 231335Z AUTO 00000KT 7SM CLR 06/04 A3021 RMK AO2 T00590040
KDUX 231315Z AUTO 00000KT 7SM CLR 04/03 A3020 RMK AO2 T00420026
KDUX 231255Z AUTO 26003KT 7SM CLR 03/02 A3020 RMK AO2 T00300015
KDUX 231235Z AUTO 26003KT 7SM CLR 02/01 A3020 RMK AO2 T00220008
KDUX 231215Z AUTO 00000KT 5SM BR CLR 02/01 A3019 RMK AO2 T00200007
KDUX 231155Z AUTO 27003KT 7SM CLR 02/01 A3019 RMK AO2 T00220009 10071 20020
KDUX 231135Z AUTO 27005KT 5SM BR CLR 02/01 A3018 RMK AO2 T00200010
KDUX 231115Z AUTO 27004KT 7SM CLR 02/01 A3018 RMK AO2 T00210010
KDUX 231055Z AUTO 27004KT 7SM CLR 02/01 A3018 RMK AO2 T00210010
KDUX 231035Z AUTO 27004KT 7SM CLR 02/01 A3018 RMK AO2 T00240012
KDUX 231015Z AUTO 27004KT 7SM CLR 03/01 A3019 RMK AO2 T00300014
KDUX 230955Z AUTO 28005KT 7SM CLR 03/02 A3019 RMK AO2 T00300015
KDUX 230935Z AUTO 27005KT 10SM CLR 03/01 A3019 RMK AO2 T00290014
KDUX 230915Z AUTO 29006KT 10SM CLR 03/02 A3018 RMK AO2 T00300015
KDUX 230855Z AUTO 28005KT 10SM CLR 03/02 A3018 RMK AO2 T00320016
KDUX 230835Z AUTO 29004KT 10SM CLR 04/02 A3018 RMK AO2 T00380021
KDUX 230815Z AUTO 27003KT 10SM CLR 04/02 A3019 RMK AO2 T00350020
KDUX 230755Z AUTO 26004KT 10SM CLR 04/02 A3019 RMK AO2 T00360015
KDUX 230735Z AUTO 00000KT 10SM CLR 05/02 A3019 RMK AO2 T00470020
KDUX 230715Z AUTO 00000KT 10SM CLR 05/02 A3019 RMK AO2 T00460021
KDUX 230655Z AUTO 01003KT 10SM CLR 05/02 A3019 RMK AO2 T00470023
KDUX 230635Z AUTO 02005KT 10SM CLR 07/02 A3019 RMK AO2 T00700023
KDUX 230615Z AUTO 05003KT 10SM CLR 07/02 A3019 RMK AO2 T00700022
KDUX 230555Z AUTO 06004KT 10SM CLR 07/03 A3018 RMK AO2 T00690025 10127 20061 401370030
KDUX 230535Z AUTO 05008KT 10SM CLR 07/03 A3017 RMK AO2 T00660027
KDUX 230515Z AUTO 04006KT 10SM CLR 07/03 A3017 RMK AO2 T00730026
KDUX 230455Z AUTO 05005KT 10SM CLR 07/03 A3017 RMK AO2 T00710025
KDUX 230435Z AUTO 05006KT 10SM CLR 07/03 A3017 RMK AO2 T00680025
KDUX 230415Z AUTO 06006KT 10SM CLR 09/03 A3017 RMK AO2 T00860026
KDUX 230355Z AUTO 07005KT 10SM CLR 08/03 A3017 RMK AO2 T00800028
KDUX 230335Z AUTO 07004KT 10SM CLR 09/03 A3018 RMK AO2 T00850028
KDUX 230315Z AUTO 06004KT 10SM CLR 08/03 A3017 RMK AO2 T00830028
KDUX 230255Z AUTO 06003KT 10SM CLR 09/03 A3017 RMK AO2 T00870028
KDUX 230235Z AUTO 07003KT 10SM CLR 09/03 A3017 RMK AO2 T00850028
KDUX 230215Z AUTO 07004KT 10SM CLR 09/03 A3016 RMK AO2 T00860030
KDUX 230155Z AUTO 07005KT 10SM CLR 09/03 A3015 RMK AO2 T00860030
KDUX 230135Z AUTO 07005KT 10SM CLR 09/03 A3015 RMK AO2 T00940030
KDUX 230115Z AUTO 05005KT 10SM CLR 11/03 A3015 RMK AO2 T01110031
KDUX 230055Z AUTO 04004KT 10SM CLR 12/03 A3015 RMK AO2 T01180027
KDUX 230035Z AUTO 03004KT 10SM CLR 12/03 A3015 RMK AO2 T01220025
KDUX 230015Z AUTO 02004KT 10SM CLR 13/03 A3015 RMK AO2 T01250025
KDUX 222355Z AUTO 36005KT 10SM CLR 13/03 A3015 RMK AO2 T01280028 10137 20092
KDUX 222335Z AUTO 01004KT 10SM SCT039 13/03 A3015 RMK AO2 T01280029
KDUX 222315Z AUTO 04006KT 10SM SCT039 13/03 A3015 RMK AO2 T01270033
KDUX 222255Z AUTO 04003KT 10SM SCT039 13/03 A3015 RMK AO2 T01320032
KDUX 222235Z AUTO 04008KT 010V070 10SM SCT037 13/03 A3015 RMK AO2 T01320031
KDUX 222215Z AUTO 36004KT 10SM SCT037 12/04 A3015 RMK AO2 T01240037
KDUX 222155Z AUTO 06003KT 10SM SCT034 SCT041 13/03 A3015 RMK AO2 T01270033
KDUX 222135Z AUTO 04007KT 10SM BKN034 12/04 A3015 RMK AO2 T01210038
KDUX 222115Z AUTO 33005KT 10SM BKN034 BKN041 12/04 A3015 RMK AO2 T01240035
KDUX 222055Z AUTO 33005KT 10SM BKN035 BKN041 12/03 A3017 RMK AO2 T01150034
KDUX 222035Z AUTO 03006KT 010V080 10SM BKN031 BKN038 12/04 A3017 RMK AO2 T01160038
KDUX 222015Z AUTO 06006KT 10SM BKN029 OVC034 11/04 A3019 RMK AO2 T01090040
KDUX 221955Z AUTO 03007KT 10SM OVC029 11/04 A3019 RMK AO2 T01050040
KDUX 221935Z AUTO 06010KT 10SM BKN029 OVC037 10/04 A3020 RMK AO2 T01030042
KDUX 221915Z AUTO 35007KT 10SM SCT027 OVC037 11/03 A3020 RMK AO2 T01080034
KDUX 221855Z AUTO 01004KT 10SM BKN027 BKN035 11/04 A3020 RMK AO2 T01060038
KDUX 221835Z AUTO 34005KT 10SM SCT025 BKN030 10/04 A3021 RMK AO2 T00980038
KDUX 221815Z AUTO 32005KT 10SM SCT022 BKN030 10/04 A3021 RMK AO2 T00980037
KDUX 221755Z AUTO 35005KT 10SM BKN027 OVC032 09/04 A3021 RMK AO2 T00940039 10094 20041
KDUX 221735Z AUTO 33008KT 10SM OVC029 09/04 A3022 RMK AO2 T00880037
KDUX 221715Z AUTO 32005KT 10SM OVC027 09/04 A3022 RMK AO2 T00890036
KDUX 221655Z AUTO 31008KT 10SM BKN023 08/04 A3022 RMK AO2 T00800035
KDUX 221635Z AUTO 31004KT 10SM BKN021 07/03 A3022 RMK AO2 T00710032